createdAt,value
2022-10-28T00:00:58.153Z,14.70
2022-10-28T00:05:13.483Z,14.00
2022-10-28T00:09:21.444Z,14.30
2022-10-28T00:13:29.323Z,15.30
2022-10-28T00:17:38.111Z,14.00
2022-10-28T00:21:48.407Z,14.50
2022-10-28T00:25:56.184Z,13.40
2022-10-28T00:30:04.105Z,14.10
2022-10-28T00:34:15.528Z,14.10
2022-10-28T00:38:23.725Z,13.60
2022-10-28T00:42:32.311Z,13.20
2022-10-28T00:46:43.319Z,14.20
2022-10-28T00:50:53.097Z,14.00
2022-10-28T00:55:04.270Z,14.10
2022-10-28T00:59:15.366Z,12.80
2022-10-28T01:03:23.661Z,12.40
2022-10-28T01:07:31.613Z,12.90
2022-10-28T01:11:52.937Z,14.10
2022-10-28T01:16:04.487Z,12.80
2022-10-28T01:20:40.995Z,12.80
2022-10-28T01:25:00.935Z,11.90
2022-10-28T01:29:53.413Z,12.40
2022-10-28T01:34:11.556Z,12.60
2022-10-28T01:38:32.411Z,12.10
2022-10-28T01:42:45.324Z,12.20
2022-10-28T01:46:57.462Z,11.00
2022-10-28T01:51:09.326Z,11.50
2022-10-28T01:55:20.617Z,10.90
2022-10-28T01:59:31.542Z,10.80
2022-10-28T02:03:39.627Z,10.70
2022-10-28T02:07:48.130Z,11.00
2022-10-28T02:12:09.311Z,10.80
2022-10-28T02:16:24.943Z,10.40
2022-10-28T02:20:42.600Z,10.70
2022-10-28T02:24:56.269Z,11.10
2022-10-28T02:29:07.433Z,12.20
2022-10-28T02:33:16.805Z,11.50
2022-10-28T02:37:28.344Z,11.60
2022-10-28T02:41:39.640Z,11.20
2022-10-28T02:45:51.288Z,11.80
2022-10-28T02:50:03.357Z,11.40
2022-10-28T02:54:14.940Z,10.80
2022-10-28T02:58:23.552Z,10.80
2022-10-28T03:02:32.417Z,11.00
2022-10-28T03:06:40.410Z,11.10
2022-10-28T03:10:48.409Z,12.50
2022-10-28T03:14:56.096Z,11.70
2022-10-28T03:19:04.341Z,11.70
2022-10-28T03:23:12.631Z,10.80
2022-10-28T03:27:20.759Z,10.30
2022-10-28T03:31:28.264Z,10.20
2022-10-28T03:35:36.456Z,10.40
2022-10-28T03:39:44.355Z,10.30
2022-10-28T03:43:52.489Z,10.40
2022-10-28T03:48:00.591Z,9.70
2022-10-28T03:52:09.415Z,10.00
2022-10-28T03:56:18.296Z,9.80
2022-10-28T04:00:26.349Z,9.90
2022-10-28T04:04:34.596Z,9.60
2022-10-28T04:08:42.443Z,9.70
2022-10-28T04:12:49.985Z,9.30
2022-10-28T04:16:58.372Z,9.10
2022-10-28T04:21:08.326Z,8.80
2022-10-28T04:25:16.762Z,9.00
2022-10-28T04:29:25.066Z,8.50
2022-10-28T04:33:32.656Z,8.00
2022-10-28T04:37:41.115Z,7.50
2022-10-28T04:41:49.406Z,8.40
2022-10-28T04:45:57.066Z,9.00
2022-10-28T04:50:05.822Z,10.00
2022-10-28T04:54:13.658Z,9.10
2022-10-28T04:58:21.364Z,9.40
2022-10-28T05:02:29.539Z,9.20
2022-10-28T05:06:38.410Z,9.00
2022-10-28T05:10:50.486Z,9.60
2022-10-28T05:14:58.059Z,9.70
2022-10-28T05:19:06.411Z,9.80
2022-10-28T05:23:14.681Z,9.60
2022-10-28T05:27:22.658Z,10.20
2022-10-28T05:31:31.066Z,9.40
2022-10-28T05:35:39.573Z,9.50
2022-10-28T05:39:47.244Z,8.90
2022-10-28T05:43:56.054Z,9.90
2022-10-28T05:48:03.910Z,10.20
2022-10-28T05:52:11.657Z,9.10
2022-10-28T05:56:19.978Z,9.20
2022-10-28T06:00:28.991Z,9.10
2022-10-28T06:04:37.298Z,9.60
2022-10-28T06:08:45.334Z,10.30
2022-10-28T06:12:51.684Z,10.20
2022-10-28T06:16:59.733Z,9.00
2022-10-28T06:21:12.398Z,9.50
2022-10-28T06:25:22.268Z,10.20
2022-10-28T06:29:30.772Z,10.70
2022-10-28T06:33:38.587Z,10.60
2022-10-28T06:37:46.345Z,10.40
2022-10-28T06:41:57.329Z,11.20
2022-10-28T06:46:05.640Z,10.70
2022-10-28T06:50:20.185Z,11.60
2022-10-28T06:54:28.782Z,11.30
2022-10-28T06:58:36.818Z,12.00
2022-10-28T07:02:45.538Z,12.10
2022-10-28T07:06:58.317Z,11.70
2022-10-28T07:11:08.248Z,10.80
2022-10-28T07:15:16.995Z,11.20
2022-10-28T07:19:24.904Z,12.00
2022-10-28T07:23:34.381Z,12.40
2022-10-28T07:27:43.357Z,11.60
2022-10-28T07:31:51.350Z,12.20
2022-10-28T07:36:00.173Z,10.60
2022-10-28T07:40:10.094Z,11.40
2022-10-28T07:44:17.871Z,11.90
2022-10-28T07:48:26.147Z,13.20
2022-10-28T07:52:34.150Z,12.80
2022-10-28T07:56:42.152Z,11.70
2022-10-28T08:00:49.943Z,10.00
2022-10-28T08:05:00.705Z,10.10
2022-10-28T08:09:08.485Z,9.90
2022-10-28T08:13:16.295Z,9.10
2022-10-28T08:17:24.089Z,8.30
2022-10-28T08:21:31.888Z,7.40
2022-10-28T08:25:40.462Z,6.80
2022-10-28T08:29:50.434Z,7.50
2022-10-28T08:34:01.168Z,6.70
2022-10-28T08:38:08.798Z,5.70
2022-10-28T08:42:33.745Z,5.50
2022-10-28T08:46:54.029Z,5.60
2022-10-28T08:51:05.647Z,5.60
2022-10-28T08:55:27.815Z,5.10
2022-10-28T08:59:40.870Z,3.80
2022-10-28T09:03:53.630Z,4.10
2022-10-28T09:08:02.169Z,4.10
2022-10-28T09:12:19.679Z,3.40
2022-10-28T09:16:36.624Z,2.80
2022-10-28T09:20:52.185Z,3.10
2022-10-28T09:25:03.794Z,2.90
2022-10-28T09:29:25.657Z,2.70
2022-10-28T09:33:47.872Z,2.80
2022-10-28T09:37:58.425Z,3.00
2022-10-28T09:42:07.332Z,2.60
2022-10-28T09:46:16.850Z,3.00
2022-10-28T09:50:28.864Z,2.90
2022-10-28T09:54:38.841Z,2.60
2022-10-28T09:58:48.818Z,2.40
2022-10-28T10:02:59.428Z,2.40
2022-10-28T10:07:13.196Z,2.70
2022-10-28T10:11:29.656Z,2.60
2022-10-28T10:15:40.384Z,2.40
2022-10-28T10:20:10.453Z,2.40
2022-10-28T10:24:33.212Z,2.30
2022-10-28T10:28:44.040Z,2.00
2022-10-28T10:32:52.155Z,2.30
2022-10-28T10:37:08.216Z,2.10
2022-10-28T10:41:36.492Z,2.10
2022-10-28T10:45:47.839Z,1.90
2022-10-28T10:49:56.612Z,2.50
2022-10-28T10:54:04.475Z,2.40
2022-10-28T10:58:20.935Z,2.60
2022-10-28T11:02:34.959Z,2.20
2022-10-28T11:06:45.262Z,2.30
2022-10-28T11:11:06.541Z,2.50
2022-10-28T11:15:27.239Z,2.40
2022-10-28T11:19:36.807Z,2.20
2022-10-28T11:23:54.475Z,2.30
2022-10-28T11:28:15.352Z,2.50
2022-10-28T11:32:38.307Z,2.10
2022-10-28T11:36:59.783Z,2.10
2022-10-28T11:41:28.060Z,2.60
2022-10-28T11:45:40.383Z,2.30
2022-10-28T11:50:07.256Z,2.20
2022-10-28T11:54:46.945Z,2.30
2022-10-28T11:59:03.253Z,2.40
2022-10-28T12:03:36.505Z,1.90
2022-10-28T12:08:06.691Z,2.30
2022-10-28T12:12:19.580Z,2.00
2022-10-28T12:16:33.504Z,1.80
2022-10-28T12:20:47.224Z,1.90
2022-10-28T12:24:55.673Z,1.90
2022-10-28T12:29:06.539Z,2.20
2022-10-28T12:33:19.536Z,2.50
2022-10-28T12:37:29.425Z,3.20
2022-10-28T12:41:51.987Z,2.10
2022-10-28T12:46:00.948Z,2.00
2022-10-28T12:50:15.134Z,2.60
2022-10-28T12:54:25.654Z,1.90
2022-10-28T12:58:37.290Z,2.20
2022-10-28T13:02:48.909Z,2.50
2022-10-28T13:07:24.927Z,2.20
2022-10-28T13:12:07.818Z,2.00
2022-10-28T13:16:24.656Z,2.30
2022-10-28T13:20:43.165Z,1.90
2022-10-28T13:24:57.762Z,1.90
2022-10-28T13:29:08.842Z,2.00
2022-10-28T13:33:22.800Z,2.30
2022-10-28T13:37:34.668Z,2.00
2022-10-28T13:41:46.224Z,2.30
2022-10-28T13:45:59.474Z,2.50
2022-10-28T13:50:18.411Z,2.20
2022-10-28T13:54:32.263Z,2.20
2022-10-28T13:58:40.061Z,3.20
2022-10-28T14:02:50.450Z,3.50
2022-10-28T14:07:21.790Z,4.00
2022-10-28T14:11:32.655Z,3.30
2022-10-28T14:15:42.150Z,3.00
2022-10-28T14:19:52.748Z,2.60
2022-10-28T14:24:15.467Z,2.90
2022-10-28T14:28:54.208Z,3.50
2022-10-28T14:33:22.382Z,2.80
2022-10-28T14:37:59.706Z,2.90
2022-10-28T14:42:22.192Z,2.40
2022-10-28T14:46:40.086Z,2.70
2022-10-28T14:50:49.348Z,2.20
2022-10-28T14:54:59.173Z,2.60
2022-10-28T14:59:28.480Z,3.10
2022-10-28T15:03:36.231Z,3.10
2022-10-28T15:07:44.591Z,3.00
2022-10-28T15:11:55.934Z,3.40
2022-10-28T15:16:03.877Z,3.10
2022-10-28T15:20:24.508Z,3.90
2022-10-28T15:24:32.490Z,3.60
2022-10-28T15:28:41.260Z,5.90
2022-10-28T15:32:48.979Z,6.10
2022-10-28T15:36:56.538Z,9.50
2022-10-28T15:41:04.296Z,9.70
2022-10-28T15:45:20.505Z,9.90
2022-10-28T15:49:38.355Z,12.80
2022-10-28T15:53:47.919Z,12.00
2022-10-28T15:57:56.385Z,8.60
2022-10-28T16:02:04.276Z,6.00
2022-10-28T16:06:26.167Z,5.80
2022-10-28T16:10:38.348Z,5.20
2022-10-28T16:14:49.826Z,5.20
2022-10-28T16:19:08.266Z,5.80
2022-10-28T16:23:19.835Z,5.40
2022-10-28T16:27:30.587Z,5.20
2022-10-28T16:31:39.065Z,4.90
2022-10-28T16:35:47.062Z,4.60
2022-10-28T16:39:54.937Z,4.00
2022-10-28T16:44:02.922Z,4.50
2022-10-28T16:48:16.158Z,4.30
2022-10-28T16:52:25.457Z,4.40
2022-10-28T16:56:33.338Z,5.10
2022-10-28T17:00:42.995Z,4.30
2022-10-28T17:04:51.911Z,4.20
2022-10-28T17:09:03.279Z,3.70
2022-10-28T17:13:13.988Z,4.70
2022-10-28T17:17:22.172Z,4.00
2022-10-28T17:21:30.108Z,3.80
2022-10-28T17:25:37.646Z,3.90
2022-10-28T17:29:45.468Z,3.90
2022-10-28T17:33:57.710Z,4.80
2022-10-28T17:38:05.403Z,4.90
2022-10-28T17:42:22.666Z,6.10
2022-10-28T17:46:34.793Z,6.90
2022-10-28T17:50:44.508Z,5.70
2022-10-28T17:54:55.947Z,4.60
2022-10-28T17:59:06.969Z,5.30
2022-10-28T18:03:25.906Z,4.90
2022-10-28T18:07:54.839Z,3.40
2022-10-28T18:12:10.449Z,3.70
2022-10-28T18:16:33.347Z,3.80
2022-10-28T18:20:44.770Z,3.90
2022-10-28T18:25:01.468Z,3.10
2022-10-28T18:29:20.934Z,3.30
2022-10-28T18:33:37.849Z,6.10
2022-10-28T18:37:49.161Z,6.90
2022-10-28T18:41:58.497Z,7.60
2022-10-28T18:46:06.932Z,6.50
2022-10-28T18:50:15.262Z,5.80
2022-10-28T18:54:22.838Z,4.70
2022-10-28T18:58:32.331Z,5.40
2022-10-28T19:07:01.508Z,4.40
2022-10-28T19:11:10.370Z,3.70
2022-10-28T19:15:19.505Z,3.60
2022-10-28T19:19:27.824Z,3.90
2022-10-28T19:23:36.328Z,4.40
2022-10-28T19:27:43.837Z,4.40
2022-10-28T19:31:51.506Z,3.60
2022-10-28T19:36:03.928Z,3.80
2022-10-28T19:40:12.935Z,3.90
2022-10-28T19:44:20.950Z,3.80
2022-10-28T19:48:29.823Z,3.60
2022-10-28T19:52:37.834Z,3.50
2022-10-28T19:56:47.479Z,3.80
2022-10-28T20:00:59.376Z,3.70
2022-10-28T20:05:07.863Z,3.50
2022-10-28T20:09:15.670Z,3.80
2022-10-28T20:13:23.281Z,3.70
2022-10-28T20:17:32.320Z,3.50
2022-10-28T20:21:41.522Z,3.60
2022-10-28T20:25:56.309Z,4.00
2022-10-28T20:30:04.393Z,3.40
2022-10-28T20:34:11.841Z,4.30
2022-10-28T20:38:19.634Z,3.60
2022-10-28T20:42:28.723Z,3.60
2022-10-28T20:46:37.860Z,4.30
2022-10-28T20:50:55.179Z,4.20
2022-10-28T20:55:03.098Z,3.60
2022-10-28T20:59:11.618Z,3.70
2022-10-28T21:03:20.779Z,3.70
2022-10-28T21:07:28.623Z,3.60
2022-10-28T21:11:37.938Z,3.70
2022-10-28T21:15:47.093Z,4.00
2022-10-28T21:19:56.123Z,3.50
2022-10-28T21:24:08.553Z,3.60
2022-10-28T21:28:17.842Z,3.80
2022-10-28T21:32:26.045Z,4.20
2022-10-28T21:36:34.790Z,4.00
2022-10-28T21:40:43.078Z,3.70
2022-10-28T21:44:50.834Z,4.00
2022-10-28T21:48:58.736Z,3.80
2022-10-28T21:53:06.187Z,3.30
2022-10-28T21:57:14.556Z,3.20
2022-10-28T22:01:23.915Z,3.70
2022-10-28T22:05:31.702Z,3.60
2022-10-28T22:09:39.399Z,3.70
2022-10-28T22:13:47.863Z,3.50
2022-10-28T22:17:56.253Z,3.60
2022-10-28T22:22:04.092Z,4.10
2022-10-28T22:26:13.567Z,4.00
2022-10-28T22:30:22.287Z,3.80
2022-10-28T22:34:29.853Z,3.60
2022-10-28T22:38:38.021Z,3.70
2022-10-28T22:42:45.935Z,3.90
2022-10-28T22:46:54.272Z,3.70
2022-10-28T22:51:02.686Z,4.30
2022-10-28T22:55:11.542Z,3.90
2022-10-28T22:59:19.589Z,3.90
2022-10-28T23:03:27.824Z,3.20
2022-10-28T23:07:36.880Z,3.50
2022-10-28T23:11:44.467Z,3.80
2022-10-28T23:15:52.325Z,3.40
2022-10-28T23:20:00.060Z,3.50
2022-10-28T23:24:10.078Z,3.70
2022-10-28T23:28:17.677Z,3.80
2022-10-28T23:32:26.123Z,3.50
2022-10-28T23:36:34.847Z,3.90
2022-10-28T23:40:44.973Z,3.80
2022-10-28T23:44:52.822Z,3.30
2022-10-28T23:49:01.101Z,3.50
2022-10-28T23:53:08.866Z,3.50
2022-10-28T23:57:19.728Z,3.50
